Sturgeon Bay, WI (54235)

6:26 PM CDT on June 24, 2017 (GMT -0500)
Redwood | | Change Station

Elev 676 ft 44.83 °N, 87.39 °W | Updated 9 seconds ago

Mostly Cloudy
Mostly Cloudy
63.9 °F
Feels Like 63.9 °F
N
2.5
Wind Variable Wind from South
Gusts 4.3 mph

Today
High -- | Low -- °F
--% Chance of Precip.
Yesterday
High -- | Low -- °F
Precip. -- in
Pressure 29.96 in
Visibility 10.0 miles
Clouds Few 5000 ft
Scattered Clouds 5500 ft
Dew Point 63 °F
Humidity 97%
Rainfall 0.22 in
Snow Depth Not available.
5:04 AM 8:39 PM
New Moon, 1% visible
METAR KMNM 242256Z AUTO 33007KT 10SM FEW050 SCT055 17/12 A2991 RMK AO2 SLP145 T01670117 $
Pressure 29.96 in
Visibility 10.0 miles
Clouds Few 5000 ft
Scattered Clouds 5500 ft
Dew Point 63 °F
Humidity 97%
Rainfall 0.22 in
Snow Depth Not available.
5:04 AM 8:39 PM
New Moon, 1% visible
METAR KMNM 242256Z AUTO 33007KT 10SM FEW050 SCT055 17/12 A2991 RMK AO2 SLP145 T01670117 $

Get Severe Weather Alerts

Thanks for signing up!

Be on the lookout for a verification email in your inbox.

You'll start receiving the daily forecast at 6 AM.

×

10-Day Weather Forecast

Almanac

Astronomy

Jun. 24, 2017 Rise Set
Actual Time
Civil Twilight
Nautical Twilight
Astronomical Twilight
Moon
Length of Visible Light
Length of Day
Tomorrow will be .
, % of the Moon is Illuminated

Today's Extremes

State Highs State Lows

Community

WunderPhotos

Category 6

Welcome to Category 6. This is the collective home for Weather Underground's featured writeups by Dr. Jeff Masters (right), Bob Henson (left), Chris Burt, and other regular contributors.

Nearby

Air Quality

  Air Quality AQ Index Pollutant
Not available.

Snow Depth

Station Depth Elevation

Earthquake Activity

City Distance Mag. Time & Date
Minimum magnitude displayed is 2.5.

Coastal Water Temperatures

Place Temperature

Stations

Nearby Weather Stations

Station Location Temp. Windchill Dew Point Humidity Wind Precip. Elev Updated Type
                   

Watches & Warnings

There are currently no watches in effect.